createdAt,value
2022-08-28T00:00:52.330Z, 43.01
2022-08-28T00:01:52.318Z, 43.06
2022-08-28T00:02:52.447Z, 42.90
2022-08-28T00:03:52.374Z, 43.21
2022-08-28T00:04:52.554Z, 43.15
2022-08-28T00:05:52.428Z, 43.06
2022-08-28T00:06:52.469Z, 43.03
2022-08-28T00:07:52.504Z, 43.10
2022-08-28T00:08:52.553Z, 42.83
2022-08-28T00:09:52.562Z, 42.73
2022-08-28T00:10:52.609Z, 42.84
2022-08-28T00:11:52.710Z, 43.18
2022-08-28T00:12:52.697Z, 42.94
2022-08-28T00:13:52.713Z, 42.31
2022-08-28T00:14:52.759Z, 42.63
2022-08-28T00:15:52.843Z, 42.60
2022-08-28T00:16:52.810Z, 42.64
2022-08-28T00:17:52.839Z, 42.68
2022-08-28T00:18:52.915Z, 42.75
2022-08-28T00:19:52.977Z, 43.01
2022-08-28T00:20:52.945Z, 42.65
2022-08-28T00:21:53.024Z, 42.67
2022-08-28T00:22:53.029Z, 42.75
2022-08-28T00:23:53.110Z, 42.58
2022-08-28T00:24:55.057Z, 42.58
2022-08-28T00:25:53.129Z, 42.73
2022-08-28T00:26:53.172Z, 42.48
2022-08-28T00:27:53.241Z, 42.57
2022-08-28T00:28:53.275Z, 42.75
2022-08-28T00:29:53.277Z, 42.94
2022-08-28T00:30:53.357Z, 42.76
2022-08-28T00:31:53.363Z, 42.63
2022-08-28T00:32:53.411Z, 42.72
2022-08-28T00:33:53.393Z, 42.61
2022-08-28T00:34:53.409Z, 42.53
2022-08-28T00:35:53.518Z, 42.75
2022-08-28T00:36:53.541Z, 42.79
2022-08-28T00:37:53.522Z, 42.93
2022-08-28T00:38:53.555Z, 42.80
2022-08-28T00:39:53.632Z, 42.65
2022-08-28T00:40:53.670Z, 42.81
2022-08-28T00:41:57.874Z, 42.68
2022-08-28T00:42:53.666Z, 42.91
2022-08-28T00:43:53.791Z, 42.76
2022-08-28T00:44:53.812Z, 42.63
2022-08-28T00:45:53.830Z, 42.64
2022-08-28T00:46:53.889Z, 42.61
2022-08-28T00:47:53.904Z, 42.69
2022-08-28T00:48:53.950Z, 42.58
2022-08-28T00:49:53.925Z, 42.52
2022-08-28T00:50:53.948Z, 42.62
2022-08-28T00:51:54.028Z, 42.61
2022-08-28T00:52:54.025Z, 42.78
2022-08-28T00:53:58.061Z, 42.64
2022-08-28T00:54:59.113Z, 42.64
2022-08-28T00:55:54.108Z, 42.64
2022-08-28T00:56:54.116Z, 42.44
2022-08-28T00:57:54.161Z, 42.47
2022-08-28T00:58:54.205Z, 42.66
2022-08-28T00:59:54.277Z, 42.50
2022-08-28T01:00:54.341Z, 42.68
2022-08-28T01:01:54.455Z, 42.87
2022-08-28T01:02:54.396Z, 42.66
2022-08-28T01:03:54.379Z, 42.71
2022-08-28T01:04:54.459Z, 42.41
2022-08-28T01:05:54.483Z, 42.42
2022-08-28T01:06:54.647Z, 42.55
2022-08-28T01:07:54.542Z, 42.65
2022-08-28T01:08:54.595Z, 42.41
2022-08-28T01:09:54.592Z, 42.64
2022-08-28T01:10:54.651Z, 42.70
2022-08-28T01:11:56.008Z, 42.53
2022-08-28T01:12:54.677Z, 42.65
2022-08-28T01:13:54.707Z, 42.39
2022-08-28T01:14:54.745Z, 42.64
2022-08-28T01:15:54.817Z, 42.81
2022-08-28T01:16:54.816Z, 42.50
2022-08-28T01:17:54.854Z, 42.54
2022-08-28T01:18:54.927Z, 42.67
2022-08-28T01:19:54.905Z, 42.50
2022-08-28T01:20:54.944Z, 42.51
2022-08-28T01:21:55.059Z, 42.57
2022-08-28T01:22:55.045Z, 42.61
2022-08-28T01:23:55.069Z, 42.52
2022-08-28T01:24:55.136Z, 42.73
2022-08-28T01:25:55.181Z, 42.66
2022-08-28T01:26:55.154Z, 42.50
2022-08-28T01:27:55.188Z, 42.62
2022-08-28T01:28:55.228Z, 42.64
2022-08-28T01:29:55.257Z, 42.47
2022-08-28T01:30:55.412Z, 42.45
2022-08-28T01:31:55.330Z, 42.77
2022-08-28T01:32:55.420Z, 42.61
2022-08-28T01:33:55.432Z, 42.56
2022-08-28T01:34:55.455Z, 42.44
2022-08-28T01:35:55.447Z, 42.43
2022-08-28T01:36:55.556Z, 42.64
2022-08-28T01:37:55.543Z, 42.51
2022-08-28T01:38:55.557Z, 42.47
2022-08-28T01:39:55.661Z, 42.61
2022-08-28T01:40:55.626Z, 42.63
2022-08-28T01:41:55.656Z, 42.53
2022-08-28T01:42:55.701Z, 42.64
2022-08-28T01:43:55.787Z, 42.56
2022-08-28T01:44:55.827Z, 42.62
2022-08-28T01:45:55.845Z, 42.47
2022-08-28T01:46:55.883Z, 42.55
2022-08-28T01:47:55.871Z, 42.48
2022-08-28T01:48:55.901Z, 42.74
2022-08-28T01:49:55.919Z, 42.49
2022-08-28T01:50:55.970Z, 42.69
2022-08-28T01:51:55.988Z, 42.61
2022-08-28T01:52:56.092Z, 42.60
2022-08-28T01:53:56.068Z, 42.66
2022-08-28T01:54:56.143Z, 42.66
2022-08-28T01:55:56.206Z, 42.70
2022-08-28T01:56:56.181Z, 42.57
2022-08-28T01:57:56.195Z, 42.63
2022-08-28T01:58:56.203Z, 42.44
2022-08-28T01:59:56.299Z, 42.48
2022-08-28T02:00:56.275Z, 42.61
2022-08-28T02:01:56.356Z, 42.57
2022-08-28T02:02:56.331Z, 42.60
2022-08-28T02:03:56.445Z, 42.41
2022-08-28T02:04:56.430Z, 42.47
2022-08-28T02:05:56.479Z, 42.47
2022-08-28T02:06:56.464Z, 42.62
2022-08-28T02:07:56.495Z, 42.72
2022-08-28T02:08:56.575Z, 42.69
2022-08-28T02:09:56.573Z, 42.39
2022-08-28T02:10:56.595Z, 42.65
2022-08-28T02:11:56.623Z, 42.54
2022-08-28T02:12:59.085Z, 42.48
2022-08-28T02:13:56.678Z, 42.55
2022-08-28T02:14:56.696Z, 42.51
2022-08-28T02:15:56.803Z, 42.46
2022-08-28T02:16:56.771Z, 42.50
2022-08-28T02:17:56.802Z, 42.50
2022-08-28T02:18:56.842Z, 42.52
2022-08-28T02:19:56.936Z, 42.51
2022-08-28T02:20:56.936Z, 42.37
2022-08-28T02:21:56.991Z, 42.44
2022-08-28T02:22:56.995Z, 42.45
2022-08-28T02:23:57.105Z, 42.55
2022-08-28T02:24:57.089Z, 42.48
2022-08-28T02:25:57.092Z, 42.23
2022-08-28T02:26:57.190Z, 42.50
2022-08-28T02:27:57.158Z, 42.54
2022-08-28T02:28:57.200Z, 42.41
2022-08-28T02:29:57.292Z, 42.32
2022-08-28T02:30:57.393Z, 42.40
2022-08-28T02:31:57.298Z, 42.52
2022-08-28T02:32:57.392Z, 42.43
2022-08-28T02:33:57.412Z, 42.64
2022-08-28T02:34:57.390Z, 42.52
2022-08-28T02:35:57.430Z, 42.39
2022-08-28T02:36:57.469Z, 42.54
2022-08-28T02:37:57.491Z, 42.46
2022-08-28T02:38:57.993Z, 42.48
2022-08-28T02:39:57.641Z, 42.60
2022-08-28T02:40:57.587Z, 42.48
2022-08-28T02:41:57.610Z, 42.48
2022-08-28T02:42:57.660Z, 42.44
2022-08-28T02:43:57.707Z, 42.57
2022-08-28T02:44:57.724Z, 42.58
2022-08-28T02:45:57.778Z, 42.50
2022-08-28T02:46:57.830Z, 42.39
2022-08-28T02:47:57.822Z, 42.64
2022-08-28T02:48:57.900Z, 42.48
2022-08-28T02:49:57.875Z, 42.48
2022-08-28T02:50:57.956Z, 42.52
2022-08-28T02:51:57.951Z, 42.67
2022-08-28T02:52:58.027Z, 42.63
2022-08-28T02:53:58.077Z, 42.41
2022-08-28T02:54:58.054Z, 42.57
2022-08-28T02:55:58.123Z, 42.62
2022-08-28T02:56:58.115Z, 42.57
2022-08-28T02:57:58.124Z, 42.50
2022-08-28T02:58:58.184Z, 42.67
2022-08-28T02:59:58.265Z, 42.72
2022-08-28T03:00:58.297Z, 42.60
2022-08-28T03:01:58.268Z, 42.63
2022-08-28T03:02:58.321Z, 42.58
2022-08-28T03:03:58.324Z, 42.52
2022-08-28T03:04:58.402Z, 42.60
2022-08-28T03:05:58.436Z, 42.77
2022-08-28T03:06:58.441Z, 42.62
2022-08-28T03:07:58.459Z, 42.49
2022-08-28T03:08:58.575Z, 42.60
2022-08-28T03:09:58.539Z, 42.67
2022-08-28T03:10:58.552Z, 42.61
2022-08-28T03:11:58.560Z, 42.56
2022-08-28T03:12:58.617Z, 42.57
2022-08-28T03:13:58.715Z, 42.56
2022-08-28T03:14:58.712Z, 42.50
2022-08-28T03:15:58.742Z, 42.49
2022-08-28T03:16:58.872Z, 42.63
2022-08-28T03:17:58.831Z, 42.67
2022-08-28T03:18:58.880Z, 42.60
2022-08-28T03:19:58.837Z, 42.72
2022-08-28T03:20:58.905Z, 42.49
2022-08-28T03:21:58.897Z, 42.50
2022-08-28T03:22:58.967Z, 42.68
2022-08-28T03:23:58.914Z, 42.44
2022-08-28T03:24:58.871Z, 42.67
2022-08-28T03:25:58.878Z, 42.47
2022-08-28T03:26:58.876Z, 42.82
2022-08-28T03:27:58.885Z, 42.80
2022-08-28T03:28:59.742Z, 42.59
2022-08-28T03:29:58.889Z, 42.65
2022-08-28T03:30:58.989Z, 42.76
2022-08-28T03:31:58.887Z, 42.58
2022-08-28T03:32:58.893Z, 42.53
2022-08-28T03:33:58.900Z, 42.53
2022-08-28T03:34:58.906Z, 42.61
2022-08-28T03:35:58.913Z, 43.15
2022-08-28T03:36:58.964Z, 41.35
2022-08-28T03:37:58.974Z, 41.42
2022-08-28T03:38:58.969Z, 41.51
2022-08-28T03:39:59.019Z, 41.44
2022-08-28T03:40:58.981Z, 41.51
2022-08-28T03:41:59.006Z, 41.48
2022-08-28T03:42:59.004Z, 41.60
2022-08-28T03:43:58.995Z, 41.56
2022-08-28T03:44:59.033Z, 41.52
2022-08-28T03:45:59.109Z, 41.74
2022-08-28T03:46:59.027Z, 41.60
2022-08-28T03:47:59.035Z, 41.50
2022-08-28T03:48:59.035Z, 41.51
2022-08-28T03:49:59.037Z, 41.52
2022-08-28T03:50:59.031Z, 41.60
2022-08-28T03:51:59.058Z, 41.55
2022-08-28T03:52:59.079Z, 41.64
2022-08-28T03:53:59.064Z, 41.56
2022-08-28T03:54:59.083Z, 41.50
2022-08-28T03:55:59.066Z, 41.67
2022-08-28T03:56:59.063Z, 41.69
2022-08-28T03:57:59.094Z, 41.72
2022-08-28T03:58:59.119Z, 41.76
2022-08-28T03:59:59.096Z, 41.57
2022-08-28T04:00:59.138Z, 41.41
2022-08-28T04:01:59.098Z, 41.41
2022-08-28T04:02:59.159Z, 41.67
2022-08-28T04:03:59.122Z, 41.64
2022-08-28T04:04:59.114Z, 41.77
2022-08-28T04:05:59.124Z, 41.64
2022-08-28T04:06:59.135Z, 41.59
2022-08-28T04:07:59.126Z, 41.47
2022-08-28T04:09:00.166Z, 41.75
2022-08-28T04:09:59.148Z, 41.55
2022-08-28T04:10:59.165Z, 41.74
2022-08-28T04:11:59.152Z, 41.63
2022-08-28T04:12:59.145Z, 41.62
2022-08-28T04:13:59.185Z, 41.55
2022-08-28T04:14:59.186Z, 41.79
2022-08-28T04:15:59.174Z, 41.84
2022-08-28T04:17:01.527Z, 41.68
2022-08-28T04:17:59.176Z, 41.83
2022-08-28T04:18:59.210Z, 41.85
2022-08-28T04:19:59.186Z, 41.86
2022-08-28T04:20:59.230Z, 41.89
2022-08-28T04:21:59.231Z, 41.80
2022-08-28T04:22:59.230Z, 41.91
2022-08-28T04:23:59.233Z, 41.80
2022-08-28T04:24:59.221Z, 41.70
2022-08-28T04:25:59.224Z, 41.78
2022-08-28T04:26:59.250Z, 41.74
2022-08-28T04:27:59.244Z, 41.91
2022-08-28T04:28:59.257Z, 41.63
2022-08-28T04:29:59.234Z, 42.03
2022-08-28T04:30:59.251Z, 41.93
2022-08-28T04:31:59.327Z, 41.77
2022-08-28T04:32:59.264Z, 41.98
2022-08-28T04:33:59.273Z, 41.71
2022-08-28T04:34:59.278Z, 41.80
2022-08-28T04:35:59.285Z, 41.86
2022-08-28T04:36:59.295Z, 41.96
2022-08-28T04:37:59.300Z, 41.62
2022-08-28T04:38:59.330Z, 41.78
2022-08-28T04:39:59.412Z, 41.94
2022-08-28T04:40:59.327Z, 41.75
2022-08-28T04:41:59.324Z, 41.93
2022-08-28T04:42:59.333Z, 41.66
2022-08-28T04:43:59.351Z, 41.90
2022-08-28T04:44:59.336Z, 41.77
2022-08-28T04:45:59.390Z, 41.79
2022-08-28T04:46:59.350Z, 42.00
2022-08-28T04:47:59.353Z, 41.90
2022-08-28T04:48:59.357Z, 42.05
2022-08-28T04:49:59.345Z, 42.10
2022-08-28T04:50:59.391Z, 41.82
2022-08-28T04:51:59.389Z, 41.77
2022-08-28T04:52:59.413Z, 41.92
2022-08-28T04:53:59.406Z, 41.90
2022-08-28T04:54:59.415Z, 41.81
2022-08-28T04:55:59.404Z, 41.98
2022-08-28T04:56:59.420Z, 41.98
2022-08-28T04:57:59.405Z, 41.97
2022-08-28T04:58:59.426Z, 41.81
2022-08-28T04:59:59.432Z, 41.83
2022-08-28T05:00:59.506Z, 41.71
2022-08-28T05:01:59.488Z, 41.94
2022-08-28T05:02:59.443Z, 41.82
2022-08-28T05:03:59.439Z, 41.76
2022-08-28T05:04:59.475Z, 41.80
2022-08-28T05:05:59.465Z, 41.79
2022-08-28T05:06:59.474Z, 41.75
2022-08-28T05:07:59.461Z, 41.89
2022-08-28T05:08:59.472Z, 41.82
2022-08-28T05:09:59.462Z, 41.90
2022-08-28T05:10:59.496Z, 41.64
2022-08-28T05:11:59.488Z, 41.79
2022-08-28T05:12:59.534Z, 41.85
2022-08-28T05:13:59.512Z, 41.79
2022-08-28T05:14:59.527Z, 41.96
2022-08-28T05:15:59.573Z, 41.93
2022-08-28T05:16:59.527Z, 42.00
2022-08-28T05:17:59.615Z, 41.97
2022-08-28T05:18:59.557Z, 41.83
2022-08-28T05:19:59.542Z, 41.96
2022-08-28T05:20:59.575Z, 41.97
2022-08-28T05:21:59.559Z, 41.67
2022-08-28T05:22:59.554Z, 41.72
2022-08-28T05:23:59.584Z, 41.96
2022-08-28T05:24:59.570Z, 41.99
2022-08-28T05:25:59.587Z, 42.06
2022-08-28T05:26:59.574Z, 41.67
2022-08-28T05:27:59.624Z, 41.87
2022-08-28T05:28:59.573Z, 42.17
2022-08-28T05:30:01.966Z, 41.99
2022-08-28T05:30:59.577Z, 41.93
2022-08-28T05:31:59.602Z, 41.76
2022-08-28T05:32:59.596Z, 41.90
2022-08-28T05:33:59.611Z, 42.05
2022-08-28T05:34:59.639Z, 41.87
2022-08-28T05:35:59.630Z, 41.85
2022-08-28T05:36:59.635Z, 41.93
2022-08-28T05:37:59.680Z, 42.11
2022-08-28T05:38:59.665Z, 42.00
2022-08-28T05:39:59.713Z, 41.94
2022-08-28T05:40:59.702Z, 41.89
2022-08-28T05:41:59.685Z, 41.81
2022-08-28T05:42:59.689Z, 41.89
2022-08-28T05:43:59.710Z, 41.82
2022-08-28T05:44:59.699Z, 41.80
2022-08-28T05:45:59.742Z, 41.98
2022-08-28T05:46:59.730Z, 41.93
2022-08-28T05:47:59.726Z, 41.86
2022-08-28T05:48:59.707Z, 41.87
2022-08-28T05:49:59.759Z, 41.80
2022-08-28T05:50:59.725Z, 41.97
2022-08-28T05:51:59.720Z, 41.87
2022-08-28T05:52:59.726Z, 41.85
2022-08-28T05:53:59.791Z, 41.92
2022-08-28T05:54:59.761Z, 41.95
2022-08-28T05:55:59.756Z, 41.93
2022-08-28T05:56:59.782Z, 41.96
2022-08-28T05:57:59.779Z, 42.10
2022-08-28T05:58:59.796Z, 41.90
2022-08-28T05:59:59.782Z, 41.83
2022-08-28T06:00:59.779Z, 41.96
2022-08-28T06:02:03.649Z, 41.97
2022-08-28T06:02:59.814Z, 41.91
2022-08-28T06:03:59.894Z, 42.03
2022-08-28T06:04:59.802Z, 42.04
2022-08-28T06:05:59.796Z, 41.98
2022-08-28T06:06:59.794Z, 41.89
2022-08-28T06:07:59.800Z, 41.84
2022-08-28T06:08:59.798Z, 41.93
2022-08-28T06:09:59.803Z, 41.86
2022-08-28T06:10:59.809Z, 42.06
2022-08-28T06:11:59.834Z, 41.89
2022-08-28T06:12:59.832Z, 42.14
2022-08-28T06:13:59.832Z, 42.07
2022-08-28T06:14:59.870Z, 42.03
2022-08-28T06:15:59.861Z, 41.81
2022-08-28T06:16:59.870Z, 42.20
2022-08-28T06:17:59.863Z, 41.85
2022-08-28T06:19:00.252Z, 41.77
2022-08-28T06:19:59.876Z, 41.86
2022-08-28T06:20:59.879Z, 41.90
2022-08-28T06:21:59.918Z, 41.90
2022-08-28T06:22:59.893Z, 41.85
2022-08-28T06:23:59.895Z, 41.97
2022-08-28T06:24:59.894Z, 41.72
2022-08-28T06:25:59.892Z, 41.90
2022-08-28T06:26:59.896Z, 42.08
2022-08-28T06:27:59.896Z, 41.84
2022-08-28T06:28:59.943Z, 42.09
2022-08-28T06:29:59.948Z, 42.05
2022-08-28T06:31:18.439Z, 41.85
2022-08-28T06:32:00.004Z, 42.10
2022-08-28T06:32:59.971Z, 42.00
2022-08-28T06:33:59.959Z, 42.02
2022-08-28T06:35:00.004Z, 42.05
2022-08-28T06:35:59.985Z, 41.90
2022-08-28T06:37:00.003Z, 42.03
2022-08-28T06:37:59.995Z, 42.09
2022-08-28T06:39:00.019Z, 42.17
2022-08-28T06:40:00.073Z, 41.93
2022-08-28T06:41:00.007Z, 41.80
2022-08-28T06:42:00.004Z, 41.93
2022-08-28T06:43:00.021Z, 41.95
2022-08-28T06:44:00.012Z, 41.79
2022-08-28T06:45:00.002Z, 42.16
2022-08-28T06:46:00.080Z, 41.88
2022-08-28T06:47:00.030Z, 42.42
2022-08-28T06:48:00.028Z, 41.88
2022-08-28T06:49:00.035Z, 41.93
2022-08-28T06:50:00.083Z, 41.91
2022-08-28T06:51:00.095Z, 42.00
2022-08-28T06:52:00.117Z, 41.86
2022-08-28T06:53:00.084Z, 42.00
2022-08-28T06:54:00.094Z, 42.06
2022-08-28T06:55:00.104Z, 42.00
2022-08-28T06:56:00.125Z, 42.10
2022-08-28T06:57:00.133Z, 42.00
2022-08-28T06:58:00.142Z, 41.94
2022-08-28T06:59:00.126Z, 42.15
2022-08-28T07:00:00.155Z, 42.03
2022-08-28T07:01:02.970Z, 41.95
2022-08-28T07:02:00.315Z, 41.93
2022-08-28T07:03:00.190Z, 42.19
2022-08-28T07:04:00.129Z, 42.17
2022-08-28T07:05:00.143Z, 42.10
2022-08-28T07:06:00.187Z, 42.10
2022-08-28T07:07:00.171Z, 42.05
2022-08-28T07:08:00.182Z, 42.11
2022-08-28T07:09:00.185Z, 41.97
2022-08-28T07:10:00.194Z, 42.14
2022-08-28T07:11:00.167Z, 42.22
2022-08-28T07:12:00.179Z, 42.08
2022-08-28T07:13:00.192Z, 42.12
2022-08-28T07:14:00.223Z, 42.11
2022-08-28T07:15:00.212Z, 42.45
2022-08-28T07:16:00.305Z, 42.16
2022-08-28T07:17:00.230Z, 42.35
2022-08-28T07:18:00.229Z, 42.14
2022-08-28T07:19:00.249Z, 42.37
2022-08-28T07:20:00.245Z, 42.04
2022-08-28T07:21:00.246Z, 42.24
2022-08-28T07:22:00.249Z, 42.36
2022-08-28T07:23:00.258Z, 41.93
2022-08-28T07:24:00.253Z, 42.07
2022-08-28T07:25:00.248Z, 42.27
2022-08-28T07:26:00.295Z, 42.06
2022-08-28T07:27:00.270Z, 42.24
2022-08-28T07:28:00.287Z, 42.07
2022-08-28T07:29:09.438Z, 42.16
2022-08-28T07:30:00.284Z, 41.98
2022-08-28T07:31:00.351Z, 42.13
2022-08-28T07:32:00.346Z, 42.25
2022-08-28T07:33:00.340Z, 42.01
2022-08-28T07:34:00.347Z, 42.17
2022-08-28T07:35:00.363Z, 42.21
2022-08-28T07:36:00.345Z, 42.20
2022-08-28T07:37:00.347Z, 42.08
2022-08-28T07:38:00.380Z, 42.19
2022-08-28T07:39:00.389Z, 42.18
2022-08-28T07:40:00.432Z, 42.13
2022-08-28T07:41:00.373Z, 42.38
2022-08-28T07:42:00.367Z, 41.98
2022-08-28T07:43:00.377Z, 42.32
2022-08-28T07:44:00.373Z, 42.06
2022-08-28T07:45:00.419Z, 42.38
2022-08-28T07:46:00.439Z, 42.32
2022-08-28T07:47:00.389Z, 42.25
2022-08-28T07:48:00.415Z, 42.22
2022-08-28T07:49:00.400Z, 41.47
2022-08-28T07:50:00.411Z, 41.67
2022-08-28T07:51:00.432Z, 41.65
2022-08-28T07:52:00.414Z, 41.54
2022-08-28T07:53:00.419Z, 41.83
2022-08-28T07:54:00.425Z, 41.52
2022-08-28T07:55:00.459Z, 41.72
2022-08-28T07:56:00.458Z, 41.65
2022-08-28T07:57:00.455Z, 41.72
2022-08-28T07:58:00.474Z, 41.59
2022-08-28T07:59:00.461Z, 41.61
2022-08-28T08:00:00.459Z, 41.61
2022-08-28T08:01:00.466Z, 41.67
2022-08-28T08:02:00.465Z, 41.55
2022-08-28T08:03:00.481Z, 41.72
2022-08-28T08:04:01.853Z, 42.10
2022-08-28T08:05:00.468Z, 41.92
2022-08-28T08:06:00.471Z, 41.79
2022-08-28T08:07:00.477Z, 41.82
2022-08-28T08:08:00.483Z, 41.69
2022-08-28T08:09:00.514Z, 41.89
2022-08-28T08:10:00.508Z, 41.74
2022-08-28T08:11:00.506Z, 41.57
2022-08-28T08:12:00.511Z, 41.71
2022-08-28T08:13:00.514Z, 41.63
2022-08-28T08:14:00.517Z, 41.90
2022-08-28T08:15:00.527Z, 41.68
2022-08-28T08:16:00.589Z, 41.92
2022-08-28T08:17:00.561Z, 41.67
2022-08-28T08:18:00.561Z, 41.75
2022-08-28T08:19:00.554Z, 41.62
2022-08-28T08:20:00.551Z, 41.90
2022-08-28T08:21:00.553Z, 41.64
2022-08-28T08:22:00.560Z, 41.70
2022-08-28T08:23:00.561Z, 41.67
2022-08-28T08:24:00.556Z, 41.75
2022-08-28T08:25:00.578Z, 41.66
2022-08-28T08:26:00.573Z, 41.69
2022-08-28T08:27:01.000Z, 41.81
2022-08-28T08:28:00.569Z, 41.61
2022-08-28T08:29:00.565Z, 41.72
2022-08-28T08:30:00.567Z, 41.78
2022-08-28T08:31:00.588Z, 41.86
2022-08-28T08:32:00.574Z, 41.77
2022-08-28T08:33:00.574Z, 41.70
2022-08-28T08:34:00.588Z, 41.99
2022-08-28T08:35:00.584Z, 42.03
2022-08-28T08:36:00.612Z, 41.77
2022-08-28T08:37:00.602Z, 41.75
2022-08-28T08:38:10.790Z, 41.82
2022-08-28T08:39:00.768Z, 41.60
2022-08-28T08:40:00.681Z, 41.77
2022-08-28T08:41:00.606Z, 41.84
2022-08-28T08:42:00.616Z, 41.84
2022-08-28T08:43:00.612Z, 41.83
2022-08-28T08:44:00.607Z, 41.78
2022-08-28T08:45:00.609Z, 41.94
2022-08-28T08:46:00.634Z, 42.02
2022-08-28T08:47:00.620Z, 41.76
2022-08-28T08:48:00.639Z, 41.94
2022-08-28T08:49:00.645Z, 41.61
2022-08-28T08:50:00.625Z, 41.72
2022-08-28T08:51:00.622Z, 41.74
2022-08-28T08:52:00.643Z, 41.90
2022-08-28T08:53:00.628Z, 41.75
2022-08-28T08:54:00.631Z, 41.85
2022-08-28T08:55:00.636Z, 41.88
2022-08-28T08:56:00.629Z, 41.76
2022-08-28T08:57:00.639Z, 41.95
2022-08-28T08:58:00.636Z, 41.74
2022-08-28T08:59:00.632Z, 41.80
2022-08-28T09:00:00.649Z, 41.87
2022-08-28T09:01:00.702Z, 41.84
2022-08-28T09:02:00.641Z, 41.70
2022-08-28T09:03:00.683Z, 41.89
2022-08-28T09:04:00.647Z, 41.86
2022-08-28T09:05:00.642Z, 41.73
2022-08-28T09:06:00.649Z, 41.57
2022-08-28T09:07:00.636Z, 41.64
2022-08-28T09:08:00.644Z, 41.74
2022-08-28T09:09:00.641Z, 41.92
2022-08-28T09:10:00.637Z, 41.93
2022-08-28T09:11:00.652Z, 41.89
2022-08-28T09:12:00.642Z, 41.80
2022-08-28T09:13:00.658Z, 41.93
2022-08-28T09:14:00.640Z, 41.96
2022-08-28T09:15:00.639Z, 42.00
2022-08-28T09:16:00.700Z, 41.96
2022-08-28T09:17:00.652Z, 41.92
2022-08-28T09:18:00.643Z, 42.01
2022-08-28T09:19:00.685Z, 42.18
2022-08-28T09:20:00.737Z, 42.22
2022-08-28T09:21:00.827Z, 41.90
2022-08-28T09:22:00.844Z, 41.78
2022-08-28T09:23:00.851Z, 42.17
2022-08-28T09:24:00.854Z, 42.07
2022-08-28T09:25:00.965Z, 42.07
2022-08-28T09:26:01.624Z, 41.91
2022-08-28T09:27:00.946Z, 41.90
2022-08-28T09:28:01.023Z, 42.01
2022-08-28T09:29:01.014Z, 41.90
2022-08-28T09:30:07.676Z, 41.92
2022-08-28T09:31:01.162Z, 41.78
2022-08-28T09:32:01.103Z, 42.05
2022-08-28T09:33:01.136Z, 42.15
2022-08-28T09:34:01.166Z, 41.88
2022-08-28T09:35:01.208Z, 41.84
2022-08-28T09:36:01.241Z, 41.84
2022-08-28T09:37:01.285Z, 41.95
2022-08-28T09:38:01.316Z, 42.03
2022-08-28T09:39:01.340Z, 42.13
2022-08-28T09:40:01.459Z, 42.14
2022-08-28T09:41:01.423Z, 42.23
2022-08-28T09:42:01.445Z, 42.12
2022-08-28T09:43:01.534Z, 42.17
2022-08-28T09:44:01.511Z, 41.94
2022-08-28T09:45:01.525Z, 41.97
2022-08-28T09:46:01.684Z, 41.86
2022-08-28T09:47:01.626Z, 42.21
2022-08-28T09:48:01.591Z, 42.20
2022-08-28T09:49:01.696Z, 42.11
2022-08-28T09:50:01.687Z, 42.21
2022-08-28T09:51:01.716Z, 42.39
2022-08-28T09:52:01.755Z, 41.99
2022-08-28T09:53:01.825Z, 42.08
2022-08-28T09:54:01.849Z, 42.23
2022-08-28T09:55:01.829Z, 42.02
2022-08-28T09:56:01.873Z, 42.13
2022-08-28T09:57:01.920Z, 42.12
2022-08-28T09:58:01.938Z, 42.08
2022-08-28T09:59:01.967Z, 42.13
2022-08-28T10:00:01.996Z, 42.08
2022-08-28T10:01:02.044Z, 42.03
2022-08-28T10:02:02.162Z, 42.05
2022-08-28T10:03:05.718Z, 42.02
2022-08-28T10:04:02.233Z, 42.12
2022-08-28T10:05:02.187Z, 42.13
2022-08-28T10:06:02.223Z, 42.11
2022-08-28T10:07:02.245Z, 42.05
2022-08-28T10:08:02.283Z, 41.97
2022-08-28T10:09:02.288Z, 42.22
2022-08-28T10:10:02.335Z, 42.11
2022-08-28T10:11:02.368Z, 42.39
2022-08-28T10:12:02.457Z, 41.90
2022-08-28T10:13:02.455Z, 42.07
2022-08-28T10:14:02.460Z, 42.07
2022-08-28T10:15:02.484Z, 41.82
2022-08-28T10:16:02.646Z, 41.92
2022-08-28T10:17:02.559Z, 42.44
2022-08-28T10:18:02.635Z, 42.25
2022-08-28T10:19:02.663Z, 42.18
2022-08-28T10:20:02.641Z, 42.11
2022-08-28T10:21:02.671Z, 42.10
2022-08-28T10:22:04.944Z, 42.00
2022-08-28T10:23:02.765Z, 42.16
2022-08-28T10:24:02.790Z, 42.07
2022-08-28T10:25:02.811Z, 42.10
2022-08-28T10:26:02.851Z, 42.39
2022-08-28T10:27:02.894Z, 42.18
2022-08-28T10:28:02.971Z, 42.20
2022-08-28T10:29:02.963Z, 42.05
2022-08-28T10:30:07.750Z, 41.99
2022-08-28T10:31:03.088Z, 42.09
2022-08-28T10:32:03.095Z, 42.20
2022-08-28T10:33:03.094Z, 42.17
2022-08-28T10:34:03.185Z, 42.21
2022-08-28T10:35:03.226Z, 41.91
2022-08-28T10:36:03.252Z, 42.07
2022-08-28T10:37:03.234Z, 42.15
2022-08-28T10:38:03.243Z, 42.68
2022-08-28T10:39:03.269Z, 42.04
2022-08-28T10:40:04.576Z, 42.20
2022-08-28T10:41:03.339Z, 42.26
2022-08-28T10:42:03.370Z, 42.03
2022-08-28T10:43:03.388Z, 42.02
2022-08-28T10:44:03.413Z, 42.04
2022-08-28T10:45:03.446Z, 42.24
2022-08-28T10:46:03.630Z, 42.26
2022-08-28T10:47:03.565Z, 42.25
2022-08-28T10:48:03.593Z, 42.36
2022-08-28T10:49:03.574Z, 42.18
2022-08-28T10:50:03.593Z, 42.13
2022-08-28T10:51:03.618Z, 42.25
2022-08-28T10:52:04.639Z, 42.27
2022-08-28T10:53:03.685Z, 42.19
2022-08-28T10:54:03.711Z, 42.16
2022-08-28T10:55:03.765Z, 42.34
2022-08-28T10:56:03.789Z, 42.20
2022-08-28T10:57:03.824Z, 42.47
2022-08-28T10:58:03.895Z, 42.13
2022-08-28T10:59:03.888Z, 42.07
2022-08-28T11:00:03.910Z, 42.10
2022-08-28T11:01:04.004Z, 42.17
2022-08-28T11:02:03.981Z, 42.22
2022-08-28T11:03:04.141Z, 42.21
2022-08-28T11:04:04.073Z, 42.32
2022-08-28T11:05:04.162Z, 42.05
2022-08-28T11:06:04.144Z, 42.20
2022-08-28T11:07:04.173Z, 42.48
2022-08-28T11:08:04.256Z, 42.14
2022-08-28T11:09:04.225Z, 42.46
2022-08-28T11:10:04.275Z, 42.46
2022-08-28T11:11:04.310Z, 42.24
2022-08-28T11:12:04.332Z, 42.14
2022-08-28T11:13:04.362Z, 42.06
2022-08-28T11:14:04.448Z, 42.21
2022-08-28T11:15:04.471Z, 42.14
2022-08-28T11:16:04.447Z, 42.27
2022-08-28T11:17:04.581Z, 41.98
2022-08-28T11:18:04.568Z, 42.29
2022-08-28T11:19:04.606Z, 42.41
2022-08-28T11:20:04.624Z, 42.59
2022-08-28T11:21:04.644Z, 42.35
2022-08-28T11:22:04.645Z, 42.28
2022-08-28T11:23:04.660Z, 42.29
2022-08-28T11:24:04.693Z, 42.58
2022-08-28T11:25:09.411Z, 42.34
2022-08-28T11:26:04.766Z, 42.12
2022-08-28T11:27:04.843Z, 42.02
2022-08-28T11:28:04.845Z, 42.26
2022-08-28T11:29:04.867Z, 42.59
2022-08-28T11:30:04.950Z, 42.31
2022-08-28T11:31:05.001Z, 42.74
2022-08-28T11:32:04.980Z, 42.87
2022-08-28T11:33:05.023Z, 42.86
2022-08-28T11:34:05.125Z, 42.96
2022-08-28T11:35:05.121Z, 42.91
2022-08-28T11:36:05.114Z, 42.73
2022-08-28T11:37:05.137Z, 42.57
2022-08-28T11:38:05.170Z, 42.82
2022-08-28T11:39:05.213Z, 42.61
2022-08-28T11:40:05.304Z, 42.71
2022-08-28T11:41:05.292Z, 42.39
2022-08-28T11:42:05.323Z, 42.50
2022-08-28T11:43:05.416Z, 42.52
2022-08-28T11:44:05.401Z, 42.46
2022-08-28T11:45:05.424Z, 42.69
2022-08-28T11:46:05.499Z, 42.17
2022-08-28T11:47:05.491Z, 42.37
2022-08-28T11:48:05.462Z, 42.22
2022-08-28T11:49:05.476Z, 42.58
2022-08-28T11:50:05.426Z, 42.59
2022-08-28T11:51:05.433Z, 42.36
2022-08-28T11:52:05.454Z, 42.22
2022-08-28T11:53:05.491Z, 42.53
2022-08-28T11:54:05.437Z, 42.46
2022-08-28T11:55:05.471Z, 42.50
2022-08-28T11:56:05.493Z, 42.32
2022-08-28T11:57:05.476Z, 42.43
2022-08-28T11:59:08.105Z, 42.67
2022-08-28T12:00:05.524Z, 42.42
2022-08-28T12:01:05.508Z, 42.40
2022-08-28T12:02:05.581Z, 42.55
2022-08-28T12:03:05.525Z, 42.44
2022-08-28T12:04:08.227Z, 42.38
2022-08-28T12:05:05.533Z, 42.41
2022-08-28T12:06:05.533Z, 42.34
2022-08-28T12:07:05.539Z, 42.14
2022-08-28T12:08:05.536Z, 42.29
2022-08-28T12:09:05.538Z, 42.42
2022-08-28T12:10:05.537Z, 42.25
2022-08-28T12:11:05.568Z, 42.20
2022-08-28T12:12:05.556Z, 42.40
2022-08-28T12:13:05.576Z, 42.27
2022-08-28T12:14:05.567Z, 42.62
2022-08-28T12:15:05.588Z, 42.14
2022-08-28T12:16:05.655Z, 42.18
2022-08-28T12:17:05.589Z, 42.40
2022-08-28T12:18:05.626Z, 42.42
2022-08-28T12:19:05.601Z, 42.47
2022-08-28T12:20:05.641Z, 42.37
2022-08-28T12:21:06.165Z, 42.60
2022-08-28T12:22:05.622Z, 42.44
2022-08-28T12:23:05.631Z, 42.29
2022-08-28T12:24:09.833Z, 42.34
2022-08-28T12:25:05.662Z, 42.41
2022-08-28T12:26:05.641Z, 42.74
2022-08-28T12:27:05.675Z, 42.53
2022-08-28T12:28:05.644Z, 42.81
2022-08-28T12:29:05.664Z, 42.66
2022-08-28T12:30:05.648Z, 42.85